< < Back
Terminal Aerodrome Forecast


Current Version              Previous Versions:   1  2  3  4  5  6  7  8  9  

Terminal Aerodrome Forecast

886
FTUS44 KOHX 221100
TAFCSV
TAF
KCSV 221120Z 2212/2312 01008G15KT P6SM FEW040=

Latest METAR

631
SAUS70 KWBC 221200
MTRCSV
METAR KCSV 221153Z AUTO 04003KT 10SM CLR 11/07 A3015 RMK AO2 SLP200
70009 T01060072 10156 20106 53018


USA.gov is the U.S. government's official web portal to all federal, state and local government web resources and services.